createdAt,value
2022-12-20T00:01:56.793Z,3.67
2022-12-20T00:04:25.066Z,3.87
2022-12-20T00:06:54.618Z,3.50
2022-12-20T00:09:22.840Z,3.93
2022-12-20T00:11:50.905Z,3.90
2022-12-20T00:14:19.625Z,3.83
2022-12-20T00:16:47.727Z,3.33
2022-12-20T00:19:15.835Z,3.77
2022-12-20T00:21:43.949Z,4.13
2022-12-20T00:24:20.726Z,3.73
2022-12-20T00:26:54.139Z,3.47
2022-12-20T00:29:22.276Z,3.50
2022-12-20T00:31:50.545Z,3.73
2022-12-20T00:34:18.739Z,3.33
2022-12-20T00:36:46.839Z,3.67
2022-12-20T00:39:16.368Z,3.47
2022-12-20T00:41:44.626Z,3.50
2022-12-20T00:44:15.287Z,3.97
2022-12-20T00:46:44.062Z,3.40
2022-12-20T00:49:12.204Z,4.03
2022-12-20T00:51:40.339Z,3.30
2022-12-20T00:54:08.559Z,3.30
2022-12-20T00:56:38.028Z,3.13
2022-12-20T00:59:06.123Z,3.63
2022-12-20T01:01:35.757Z,3.50
2022-12-20T01:04:04.611Z,3.00
2022-12-20T01:06:35.778Z,2.97
2022-12-20T01:09:07.101Z,3.93
2022-12-20T01:11:39.286Z,3.17
2022-12-20T01:14:12.743Z,3.10
2022-12-20T01:16:45.100Z,3.83
2022-12-20T01:19:18.111Z,2.90
2022-12-20T01:21:46.611Z,3.20
2022-12-20T01:24:20.044Z,2.97
2022-12-20T01:26:51.786Z,3.00
2022-12-20T01:29:22.194Z,3.37
2022-12-20T01:31:53.885Z,3.17
2022-12-20T01:34:24.379Z,3.53
2022-12-20T01:36:52.443Z,3.00
2022-12-20T01:39:22.868Z,3.07
2022-12-20T01:41:52.285Z,2.80
2022-12-20T01:44:56.699Z,3.10
2022-12-20T01:47:27.563Z,2.97
2022-12-20T01:49:58.518Z,2.90
2022-12-20T01:52:33.942Z,2.80
2022-12-20T01:55:11.715Z,2.77
2022-12-20T01:57:48.194Z,3.27
2022-12-20T02:00:19.086Z,2.60
2022-12-20T02:02:50.008Z,2.97
2022-12-20T02:05:20.561Z,3.07
2022-12-20T02:07:51.437Z,3.13
2022-12-20T02:10:21.644Z,3.20
2022-12-20T02:12:59.363Z,3.23
2022-12-20T02:15:40.318Z,2.90
2022-12-20T02:18:19.678Z,2.80
2022-12-20T02:21:25.037Z,2.17
2022-12-20T02:24:24.797Z,2.47
2022-12-20T02:27:32.639Z,2.80
2022-12-20T02:30:09.930Z,2.20
2022-12-20T02:32:43.393Z,2.27
2022-12-20T02:35:14.880Z,2.63
2022-12-20T02:37:54.510Z,2.43
2022-12-20T02:40:28.643Z,2.43
2022-12-20T02:43:00.345Z,2.13
2022-12-20T02:45:34.030Z,2.40
2022-12-20T02:48:05.562Z,2.53
2022-12-20T02:50:39.142Z,2.27
2022-12-20T02:53:08.635Z,2.10
2022-12-20T02:55:45.188Z,2.90
2022-12-20T02:58:22.598Z,2.20
2022-12-20T03:00:53.030Z,2.23
2022-12-20T03:03:24.842Z,2.27
2022-12-20T03:05:57.752Z,2.30
2022-12-20T03:08:26.658Z,2.40
2022-12-20T03:10:57.506Z,2.20
2022-12-20T03:13:26.963Z,3.00
2022-12-20T03:16:06.464Z,2.53
2022-12-20T03:18:34.637Z,2.47
2022-12-20T03:21:04.921Z,2.47
2022-12-20T03:23:35.528Z,2.70
2022-12-20T03:26:05.964Z,2.23
2022-12-20T03:28:45.065Z,2.97
2022-12-20T03:31:19.766Z,2.27
2022-12-20T03:33:52.578Z,2.23
2022-12-20T03:36:23.565Z,2.60
2022-12-20T03:38:56.152Z,2.30
2022-12-20T03:41:28.066Z,2.10
2022-12-20T03:43:56.402Z,2.53
2022-12-20T03:46:27.994Z,2.63
2022-12-20T03:48:56.581Z,2.40
2022-12-20T03:51:25.068Z,2.20
2022-12-20T03:53:53.174Z,2.40
2022-12-20T03:56:24.483Z,2.40
2022-12-20T03:58:55.707Z,2.30
2022-12-20T04:01:27.195Z,1.93
2022-12-20T04:03:56.836Z,2.37
2022-12-20T04:06:25.434Z,2.30
2022-12-20T04:08:53.597Z,2.87
2022-12-20T04:11:27.777Z,2.70
2022-12-20T04:14:06.947Z,2.50
2022-12-20T04:16:38.879Z,3.00
2022-12-20T04:19:07.953Z,2.73
2022-12-20T04:21:40.761Z,2.50
2022-12-20T04:24:11.454Z,2.67
2022-12-20T04:26:45.143Z,2.67
2022-12-20T04:29:14.468Z,2.53
2022-12-20T04:31:45.207Z,2.23
2022-12-20T04:34:13.900Z,2.83
2022-12-20T04:36:42.203Z,2.43
2022-12-20T04:39:16.603Z,2.57
2022-12-20T04:42:02.722Z,2.50
2022-12-20T04:44:30.855Z,2.33
2022-12-20T04:47:02.416Z,1.97
2022-12-20T04:49:30.790Z,2.73
2022-12-20T04:52:18.914Z,2.43
2022-12-20T04:54:47.769Z,2.47
2022-12-20T04:57:20.720Z,2.97
2022-12-20T04:59:49.055Z,2.97
2022-12-20T05:02:18.691Z,2.50
2022-12-20T05:05:01.839Z,2.30
2022-12-20T05:07:31.338Z,2.10
2022-12-20T05:10:01.522Z,2.53
2022-12-20T05:12:31.435Z,2.40
2022-12-20T05:15:01.690Z,2.40
2022-12-20T05:17:31.803Z,2.20
2022-12-20T05:20:01.160Z,2.47
2022-12-20T05:22:49.498Z,2.20
2022-12-20T05:25:42.659Z,2.20
2022-12-20T05:28:11.845Z,2.53
2022-12-20T05:30:41.576Z,2.50
2022-12-20T05:33:12.919Z,2.60
2022-12-20T05:35:44.986Z,2.50
2022-12-20T05:38:15.418Z,2.90
2022-12-20T05:40:48.243Z,2.50
2022-12-20T05:43:19.876Z,3.00
2022-12-20T05:45:52.052Z,2.67
2022-12-20T05:48:28.742Z,2.90
2022-12-20T05:50:56.940Z,3.20
2022-12-20T05:53:31.330Z,2.90
2022-12-20T05:56:02.647Z,2.80
2022-12-20T05:58:34.214Z,3.10
2022-12-20T06:01:07.118Z,2.63
2022-12-20T06:03:41.086Z,2.60
2022-12-20T06:06:15.386Z,2.73
2022-12-20T06:08:46.666Z,2.83
2022-12-20T06:11:29.892Z,2.90
2022-12-20T06:14:08.541Z,2.90
2022-12-20T06:16:40.269Z,2.90
2022-12-20T06:19:17.532Z,3.00
2022-12-20T06:21:49.401Z,3.47
2022-12-20T06:24:21.389Z,3.10
2022-12-20T06:26:51.017Z,3.28
2022-12-20T06:29:24.604Z,2.97
2022-12-20T06:31:57.096Z,2.90
2022-12-20T06:34:30.489Z,2.70
2022-12-20T06:36:58.613Z,3.07
2022-12-20T06:39:30.050Z,3.10
2022-12-20T06:42:03.752Z,3.30
2022-12-20T06:44:32.241Z,2.70
2022-12-20T06:47:00.850Z,2.93
2022-12-20T06:49:32.620Z,3.40
2022-12-20T06:52:03.805Z,3.00
2022-12-20T06:54:47.503Z,3.27
2022-12-20T06:57:15.835Z,2.63
2022-12-20T06:59:46.384Z,2.50
2022-12-20T07:02:14.604Z,3.13
2022-12-20T07:04:46.720Z,2.97
2022-12-20T07:07:17.199Z,3.17
2022-12-20T07:09:47.301Z,3.03
2022-12-20T07:12:15.451Z,3.20
2022-12-20T07:14:43.615Z,2.60
2022-12-20T07:17:11.889Z,2.90
2022-12-20T07:19:43.035Z,2.90
2022-12-20T07:22:19.154Z,2.87
2022-12-20T07:24:47.675Z,2.80
2022-12-20T07:27:16.122Z,3.53
2022-12-20T07:29:44.786Z,3.40
2022-12-20T07:32:13.852Z,2.77
2022-12-20T07:34:41.940Z,3.00
2022-12-20T07:37:10.087Z,3.33
2022-12-20T07:39:39.482Z,3.07
2022-12-20T07:42:10.089Z,3.40
2022-12-20T07:44:43.753Z,3.03
2022-12-20T07:47:11.867Z,2.60
2022-12-20T07:49:39.987Z,2.80
2022-12-20T07:52:11.687Z,2.93
2022-12-20T07:54:46.332Z,3.10
2022-12-20T07:57:19.840Z,2.87
2022-12-20T07:59:51.846Z,2.77
2022-12-20T08:02:28.404Z,2.77
2022-12-20T08:04:57.507Z,3.20
2022-12-20T08:07:25.848Z,3.23
2022-12-20T08:09:55.344Z,3.03
2022-12-20T08:12:23.658Z,2.80
2022-12-20T08:14:56.400Z,2.87
2022-12-20T08:17:27.265Z,2.77
2022-12-20T08:19:57.796Z,2.83
2022-12-20T08:22:25.877Z,3.17
2022-12-20T08:24:55.390Z,2.70
2022-12-20T08:27:25.801Z,2.73
2022-12-20T08:29:53.890Z,3.20
2022-12-20T08:32:22.029Z,2.77
2022-12-20T08:34:50.100Z,2.80
2022-12-20T08:37:18.484Z,2.67
2022-12-20T08:39:48.932Z,2.33
2022-12-20T08:42:18.387Z,2.90
2022-12-20T08:44:46.532Z,2.83
2022-12-20T08:47:17.352Z,3.10
2022-12-20T08:49:48.269Z,2.10
2022-12-20T08:52:16.585Z,2.80
2022-12-20T08:54:47.317Z,2.63
2022-12-20T08:57:19.170Z,2.70
2022-12-20T08:59:47.284Z,2.50
2022-12-20T09:02:17.601Z,2.47
2022-12-20T09:04:45.828Z,2.40
2022-12-20T09:07:15.973Z,2.57
2022-12-20T09:09:48.182Z,2.93
2022-12-20T09:12:16.324Z,2.47
2022-12-20T09:14:48.307Z,2.40
2022-12-20T09:17:18.788Z,2.70
2022-12-20T09:19:50.269Z,2.27
2022-12-20T09:22:20.755Z,2.50
2022-12-20T09:24:49.209Z,2.10
2022-12-20T09:27:17.302Z,2.37
2022-12-20T09:29:45.431Z,2.20
2022-12-20T09:32:15.435Z,2.50
2022-12-20T09:34:45.610Z,2.07
2022-12-20T09:37:13.663Z,2.13
2022-12-20T09:39:41.946Z,2.30
2022-12-20T09:42:10.908Z,2.10
2022-12-20T09:44:42.441Z,2.50
2022-12-20T09:47:18.756Z,1.90
2022-12-20T09:49:50.091Z,1.93
2022-12-20T09:52:31.366Z,2.27
2022-12-20T09:55:08.925Z,2.17
2022-12-20T09:57:51.608Z,1.90
2022-12-20T10:00:22.664Z,2.10
2022-12-20T10:03:08.820Z,2.23
2022-12-20T10:05:48.111Z,1.87
2022-12-20T10:08:31.294Z,1.90
2022-12-20T10:11:04.773Z,1.93
2022-12-20T10:13:46.585Z,2.77
2022-12-20T10:16:30.666Z,2.43
2022-12-20T10:19:11.663Z,1.90
2022-12-20T10:21:48.965Z,1.90
2022-12-20T10:24:20.659Z,1.67
2022-12-20T10:26:51.262Z,1.80
2022-12-20T10:29:21.060Z,2.00
2022-12-20T10:31:53.998Z,2.10
2022-12-20T10:34:30.115Z,2.17
2022-12-20T10:37:13.386Z,2.23
2022-12-20T10:39:45.543Z,2.20
2022-12-20T10:42:38.537Z,2.20
2022-12-20T10:45:19.980Z,2.40
2022-12-20T10:47:51.518Z,2.37
2022-12-20T10:50:25.075Z,2.40
2022-12-20T10:53:19.875Z,2.20
2022-12-20T10:55:48.078Z,2.17
2022-12-20T10:58:22.856Z,1.83
2022-12-20T11:01:05.758Z,1.80
2022-12-20T11:03:34.046Z,2.27
2022-12-20T11:06:05.043Z,1.77
2022-12-20T11:08:44.846Z,1.77
2022-12-20T11:11:20.571Z,2.03
2022-12-20T11:13:52.940Z,1.80
2022-12-20T11:16:28.519Z,2.50
2022-12-20T11:19:04.297Z,2.03
2022-12-20T11:21:43.951Z,2.27
2022-12-20T11:24:20.111Z,1.87
2022-12-20T11:27:09.318Z,2.07
2022-12-20T11:30:08.258Z,1.70
2022-12-20T11:32:50.228Z,1.80
2022-12-20T11:35:22.037Z,2.13
2022-12-20T11:38:10.052Z,2.10
2022-12-20T11:40:49.145Z,2.00
2022-12-20T11:43:28.674Z,2.27
2022-12-20T11:46:15.417Z,2.00
2022-12-20T11:48:57.119Z,2.07
2022-12-20T11:51:34.688Z,2.20
2022-12-20T11:54:11.838Z,2.07
2022-12-20T11:56:44.747Z,2.10
2022-12-20T11:59:20.023Z,2.00
2022-12-20T12:01:53.144Z,3.53
2022-12-20T12:04:23.853Z,2.00
2022-12-20T12:06:57.836Z,1.87
2022-12-20T12:09:33.794Z,2.30
2022-12-20T12:12:07.370Z,1.90
2022-12-20T12:14:54.202Z,2.10
2022-12-20T12:17:29.841Z,2.30
2022-12-20T12:20:15.700Z,1.80
2022-12-20T12:22:47.887Z,2.03
2022-12-20T12:25:20.011Z,2.03
2022-12-20T12:27:48.244Z,2.03
2022-12-20T12:30:17.649Z,1.70
2022-12-20T12:32:51.345Z,1.90
2022-12-20T12:35:53.161Z,2.10
2022-12-20T12:39:00.214Z,1.77
2022-12-20T12:41:56.850Z,2.00
2022-12-20T12:44:39.171Z,3.10
2022-12-20T12:47:17.979Z,2.60
2022-12-20T12:49:51.329Z,2.47
2022-12-20T12:52:46.144Z,2.40
2022-12-20T12:55:41.037Z,2.40
2022-12-20T12:58:35.238Z,2.43
2022-12-20T13:01:08.050Z,2.37
2022-12-20T13:04:11.633Z,2.80
2022-12-20T13:06:58.006Z,3.03
2022-12-20T13:09:42.751Z,3.40
2022-12-20T13:12:53.386Z,3.50
2022-12-20T13:15:52.049Z,3.57
2022-12-20T13:18:30.303Z,3.23
2022-12-20T13:21:18.395Z,3.73
2022-12-20T13:23:49.068Z,2.90
2022-12-20T13:26:53.264Z,3.20
2022-12-20T13:29:26.967Z,3.00
2022-12-20T13:31:58.691Z,2.87
2022-12-20T13:34:41.045Z,3.13
2022-12-20T13:37:30.414Z,2.43
2022-12-20T13:40:01.032Z,2.40
2022-12-20T13:42:42.014Z,2.53
2022-12-20T13:45:14.411Z,3.23
2022-12-20T13:47:49.717Z,2.70
2022-12-20T13:50:32.081Z,2.30
2022-12-20T13:53:00.435Z,2.93
2022-12-20T13:55:37.648Z,2.63
2022-12-20T13:58:18.351Z,2.73
2022-12-20T14:00:48.443Z,3.20
2022-12-20T14:03:23.395Z,2.50
2022-12-20T14:05:59.088Z,3.10
2022-12-20T14:08:30.041Z,3.13
2022-12-20T14:11:09.562Z,3.07
2022-12-20T14:13:37.808Z,2.80
2022-12-20T14:16:11.510Z,3.30
2022-12-20T14:18:44.435Z,3.60
2022-12-20T14:21:12.636Z,3.60
2022-12-20T14:23:46.391Z,3.10
2022-12-20T14:26:17.882Z,3.10
2022-12-20T14:28:48.103Z,2.80
2022-12-20T14:31:27.772Z,3.10
2022-12-20T14:34:13.055Z,3.87
2022-12-20T14:36:47.449Z,3.33
2022-12-20T14:39:27.259Z,3.83
2022-12-20T14:41:59.186Z,3.23
2022-12-20T14:44:29.352Z,4.33
2022-12-20T14:46:59.283Z,4.37
2022-12-20T14:49:31.136Z,3.60
2022-12-20T14:52:16.061Z,3.93
2022-12-20T14:57:45.458Z,3.83
2022-12-20T15:00:21.279Z,4.57
2022-12-20T15:02:53.849Z,4.37
2022-12-20T15:05:51.621Z,4.57
2022-12-20T15:08:27.205Z,36.20
2022-12-20T15:10:59.132Z,11.63
2022-12-20T15:13:31.477Z,7.60
2022-12-20T15:16:01.822Z,8.00
2022-12-20T15:18:30.033Z,7.20
2022-12-20T15:21:07.957Z,11.80
2022-12-20T15:23:44.746Z,8.10
2022-12-20T15:26:17.328Z,7.60
2022-12-20T15:28:45.957Z,7.87
2022-12-20T15:31:15.778Z,7.60
2022-12-20T15:33:45.259Z,6.67
2022-12-20T15:36:18.293Z,7.37
2022-12-20T15:39:11.265Z,7.33
2022-12-20T15:41:37.219Z,7.40
2022-12-20T15:44:07.915Z,7.57
2022-12-20T15:46:36.115Z,7.63
2022-12-20T15:49:04.701Z,8.53
2022-12-20T15:51:35.943Z,7.97
2022-12-20T15:54:16.189Z,11.93
2022-12-20T15:56:44.270Z,9.20
2022-12-20T15:59:48.951Z,8.40
2022-12-20T16:02:01.206Z,8.40
2022-12-20T16:04:29.923Z,8.80
2022-12-20T16:07:00.920Z,8.47
2022-12-20T16:09:31.600Z,8.27
2022-12-20T16:11:59.831Z,10.20
2022-12-20T16:14:30.903Z,10.07
2022-12-20T16:16:59.147Z,10.40
2022-12-20T16:19:27.267Z,10.67
2022-12-20T16:21:55.723Z,11.77
2022-12-20T16:24:27.252Z,10.93
2022-12-20T16:26:56.042Z,10.83
2022-12-20T16:29:24.113Z,11.47
2022-12-20T16:31:52.492Z,12.10
2022-12-20T16:34:21.851Z,14.73
2022-12-20T16:36:50.842Z,13.20
2022-12-20T16:39:19.073Z,12.87
2022-12-20T16:41:48.586Z,13.30
2022-12-20T16:44:19.349Z,12.57
2022-12-20T16:46:49.816Z,13.03
2022-12-20T16:49:20.706Z,14.30
2022-12-20T16:51:50.166Z,13.63
2022-12-20T16:54:21.428Z,15.83
2022-12-20T16:56:55.492Z,14.27
2022-12-20T16:59:26.325Z,14.90
2022-12-20T17:01:56.872Z,13.47
2022-12-20T17:04:27.646Z,14.27
2022-12-20T17:06:55.843Z,13.83
2022-12-20T17:09:30.024Z,12.60
2022-12-20T17:12:00.062Z,13.63
2022-12-20T17:14:28.245Z,15.00
2022-12-20T17:16:58.482Z,13.97
2022-12-20T17:19:28.811Z,16.03
2022-12-20T17:24:42.477Z,13.63
2022-12-20T17:27:14.174Z,14.77
2022-12-20T17:29:42.311Z,14.23
2022-12-20T17:32:20.797Z,13.40
2022-12-20T17:34:49.189Z,12.63
2022-12-20T17:37:18.118Z,13.77
2022-12-20T17:39:46.573Z,14.03
2022-12-20T17:42:18.417Z,13.33
2022-12-20T17:44:47.092Z,12.97
2022-12-20T17:47:16.977Z,12.37
2022-12-20T17:49:45.136Z,14.10
2022-12-20T17:52:15.489Z,14.20
2022-12-20T17:54:43.944Z,12.37
2022-12-20T17:57:15.800Z,12.10
2022-12-20T17:59:45.581Z,12.13
2022-12-20T18:02:22.220Z,12.03
2022-12-20T18:04:51.054Z,12.23
2022-12-20T18:07:22.459Z,10.93
2022-12-20T18:09:50.935Z,12.03
2022-12-20T18:12:21.744Z,11.97
2022-12-20T18:14:51.347Z,12.37
2022-12-20T18:17:21.744Z,12.13
2022-12-20T18:19:49.888Z,11.30
2022-12-20T18:22:18.022Z,12.47
2022-12-20T18:24:46.355Z,13.00
2022-12-20T18:27:17.446Z,13.30
2022-12-20T18:29:45.592Z,13.63
2022-12-20T18:32:17.346Z,14.50
2022-12-20T18:34:45.526Z,12.73
2022-12-20T18:37:13.757Z,13.00
2022-12-20T18:39:42.017Z,12.90
2022-12-20T18:42:10.232Z,13.17
2022-12-20T18:44:38.472Z,13.20
2022-12-20T18:47:06.680Z,12.83
2022-12-20T18:49:37.501Z,13.00
2022-12-20T18:52:05.789Z,11.93
2022-12-20T18:54:37.049Z,12.13
2022-12-20T18:57:06.605Z,12.97
2022-12-20T18:59:34.995Z,13.83
2022-12-20T19:02:05.922Z,12.83
2022-12-20T19:04:37.778Z,14.13
2022-12-20T19:07:05.920Z,13.17
2022-12-20T19:09:34.045Z,13.47
2022-12-20T19:12:02.162Z,13.47
2022-12-20T19:14:32.314Z,13.17
2022-12-20T19:17:00.509Z,13.80
2022-12-20T19:19:29.036Z,14.67
2022-12-20T19:21:58.915Z,14.53
2022-12-20T19:24:27.087Z,14.60
2022-12-20T19:26:55.255Z,15.10
2022-12-20T19:29:23.554Z,14.00
2022-12-20T19:31:51.832Z,14.73
2022-12-20T19:34:19.981Z,16.00
2022-12-20T19:36:48.493Z,13.93
2022-12-20T19:39:20.436Z,14.70
2022-12-20T19:42:13.858Z,16.37
2022-12-20T19:44:40.442Z,15.90
2022-12-20T19:47:10.980Z,16.47
2022-12-20T19:49:39.108Z,15.70
2022-12-20T19:52:07.893Z,16.30
2022-12-20T19:54:39.678Z,16.97
2022-12-20T19:57:10.224Z,16.50
2022-12-20T19:59:38.417Z,16.83
2022-12-20T20:02:06.796Z,16.50
2022-12-20T20:04:38.122Z,17.60
2022-12-20T20:07:08.742Z,18.40
2022-12-20T20:09:41.261Z,18.20
2022-12-20T20:12:09.539Z,18.43
2022-12-20T20:14:37.677Z,18.07
2022-12-20T20:17:05.827Z,19.43
2022-12-20T20:19:37.972Z,18.93
2022-12-20T20:22:06.176Z,20.97
2022-12-20T20:24:34.416Z,19.40
2022-12-20T20:27:04.072Z,19.67
2022-12-20T20:29:32.242Z,19.77
2022-12-20T20:32:00.607Z,19.87
2022-12-20T20:34:28.888Z,18.97
2022-12-20T20:36:57.037Z,20.43
2022-12-20T20:39:25.139Z,19.50
2022-12-20T20:41:53.297Z,20.00
2022-12-20T20:44:24.833Z,19.83
2022-12-20T20:46:55.315Z,19.67
2022-12-20T20:49:25.721Z,19.53
2022-12-20T20:51:56.482Z,19.73
2022-12-20T20:54:24.576Z,21.10
2022-12-20T20:56:55.247Z,21.70
2022-12-20T20:59:24.998Z,21.50
2022-12-20T21:01:53.561Z,20.47
2022-12-20T21:04:21.810Z,20.03
2022-12-20T21:06:52.511Z,21.40
2022-12-20T21:09:20.642Z,20.50
2022-12-20T21:11:48.891Z,19.80
2022-12-20T21:14:30.366Z,21.00
2022-12-20T21:17:06.769Z,20.63
2022-12-20T21:19:34.853Z,21.60
2022-12-20T21:22:12.535Z,22.80
2022-12-20T21:24:41.236Z,21.03
2022-12-20T21:27:09.790Z,19.90
2022-12-20T21:29:39.124Z,19.57
2022-12-20T21:32:09.274Z,19.77
2022-12-20T21:34:37.476Z,19.77
2022-12-20T21:37:06.912Z,18.60
2022-12-20T21:39:36.083Z,19.20
2022-12-20T21:42:06.433Z,19.47
2022-12-20T21:44:36.908Z,18.03
2022-12-20T21:47:05.116Z,19.30
2022-12-20T21:49:34.672Z,18.87
2022-12-20T21:52:02.790Z,19.40
2022-12-20T21:54:31.458Z,19.03
2022-12-20T21:56:59.891Z,17.07
2022-12-20T21:59:28.142Z,19.77
2022-12-20T22:01:56.559Z,19.13
2022-12-20T22:04:27.034Z,20.20
2022-12-20T22:06:56.557Z,19.57
2022-12-20T22:09:25.275Z,19.37
2022-12-20T22:11:53.343Z,19.80
2022-12-20T22:14:21.434Z,18.13
2022-12-20T22:16:49.534Z,20.00
2022-12-20T22:19:17.979Z,19.30
2022-12-20T22:21:46.078Z,27.13
2022-12-20T22:24:17.644Z,20.83
2022-12-20T22:26:45.760Z,19.33
2022-12-20T22:29:13.878Z,18.70
2022-12-20T22:31:42.030Z,18.67
2022-12-20T22:34:10.325Z,18.10
2022-12-20T22:36:38.539Z,18.63
2022-12-20T22:39:06.694Z,17.87
2022-12-20T22:41:36.656Z,18.00
2022-12-20T22:44:05.307Z,17.23
2022-12-20T22:46:34.359Z,17.83
2022-12-20T22:49:02.583Z,17.00
2022-12-20T22:51:33.413Z,17.70
2022-12-20T22:54:01.951Z,18.10
2022-12-20T22:56:30.258Z,16.93
2022-12-20T22:58:59.733Z,17.10
2022-12-20T23:01:30.298Z,17.33
2022-12-20T23:03:58.626Z,17.60
2022-12-20T23:06:26.794Z,18.40
2022-12-20T23:08:57.275Z,18.30
2022-12-20T23:11:47.066Z,18.07
2022-12-20T23:14:37.263Z,17.70
2022-12-20T23:17:05.587Z,16.77
2022-12-20T23:19:50.463Z,18.10
2022-12-20T23:22:39.565Z,17.40
2022-12-20T23:25:12.544Z,17.37
2022-12-20T23:27:44.003Z,18.07
2022-12-20T23:30:18.214Z,16.63
2022-12-20T23:32:46.664Z,17.50
2022-12-20T23:35:17.205Z,16.63
2022-12-20T23:37:45.911Z,16.60
2022-12-20T23:40:18.063Z,16.10
2022-12-20T23:42:48.609Z,16.33
2022-12-20T23:45:18.219Z,15.70
2022-12-20T23:47:46.292Z,17.13
2022-12-20T23:50:16.583Z,15.97
2022-12-20T23:52:45.427Z,15.23
2022-12-20T23:55:13.547Z,15.23
2022-12-20T23:57:48.832Z,15.57
